»·PEaware :: N55NT KSNA-KBFL

N55NT :: KSNA-KBFL

FLIGHT INFORMATION

Flight Status: Arrived
Operator: Privately registered:
United States
More flights under this callsign
Pilot: Craig H. (6968)
Aircraft: SOCATA TBM-900
(TBM9)
More flights by this aircraft type
Origin: KSNA John Wayne-Orange Co
United States
Destination: KBFL Meadows
United States
More flights between these airports :: More routes between these airports
Route: +MUSEL8 SLI V459 LHS FASTO2
File this flight plan on PilotEdge
Remarks:
Altitude:
(Current/Filed)
20,000ft
Speed:
(Current/Filed)
210kts
Departed: 08-Nov-19 04:22 PM
Arrived: 08-Nov-19 04:59 PM
Distance/Time
Traveled:
120nm/0:36
Distance/Time
To Go:
Arrived

Flight Plot

Page will automatically refresh every two minutes.

Flight plan parsing failed; only flown route is shown


Map Options




Map Legend


Flown Route
Filed Route
Departure Airport
Arrival Airport
Navaid (VOR, NDB)
Fix

Horizontal Profiles

Position Reports

Time Latitude Longitude Heading Altitude Ground
Speed
08-Nov-19 15:57 33.665943 -117.873070 40 59ft 0kts
08-Nov-19 15:58 33.665943 -117.873070 40 59ft 0kts
08-Nov-19 15:59 33.665943 -117.873070 40 59ft 0kts
08-Nov-19 16:00 33.665943 -117.873070 40 59ft 0kts
08-Nov-19 16:01 33.665943 -117.873070 40 59ft 0kts
08-Nov-19 16:02 33.665943 -117.873070 40 59ft 0kts
08-Nov-19 16:03 33.665943 -117.873070 40 59ft 0kts
08-Nov-19 16:04 33.665943 -117.873070 40 59ft 0kts
08-Nov-19 16:05 33.665943 -117.873070 40 59ft 0kts
08-Nov-19 16:06 33.665943 -117.873070 40 59ft 0kts
08-Nov-19 16:07 33.665943 -117.873070 40 59ft 0kts
08-Nov-19 16:08 33.665943 -117.873070 40 59ft 0kts
08-Nov-19 16:09 33.665943 -117.873070 40 59ft 0kts
08-Nov-19 16:10 33.665943 -117.873070 40 59ft 0kts
08-Nov-19 16:11 33.665943 -117.873070 40 59ft 0kts
08-Nov-19 16:12 33.665943 -117.873070 40 59ft 0kts
08-Nov-19 16:13 33.666050 -117.873074 319 59ft 2kts
08-Nov-19 16:14 33.666093 -117.873156 300 59ft 0kts
08-Nov-19 16:15 33.667828 -117.872269 41 59ft 13kts
08-Nov-19 16:16 33.670929 -117.869071 39 59ft 12kts
08-Nov-19 16:17 33.673903 -117.867220 16 59ft 11kts
08-Nov-19 16:18 33.677554 -117.864909 27 59ft 15kts
08-Nov-19 16:19 33.679963 -117.863636 312 59ft 0kts
08-Nov-19 16:20 33.680669 -117.865224 297 59ft 14kts
08-Nov-19 16:21 33.664765 -117.875999 205 612ft 132kts
08-Nov-19 16:22 33.625745 -117.889754 191 2522ft 159kts
08-Nov-19 16:23 33.581272 -117.897903 190 4553ft 169kts
08-Nov-19 16:24 33.538076 -117.914547 249 6693ft 169kts
08-Nov-19 16:25 33.542907 -117.965983 321 8609ft 172kts
08-Nov-19 16:26 33.580007 -118.003695 321 10713ft 181kts
08-Nov-19 16:27 33.619175 -118.044038 321 12776ft 191kts
08-Nov-19 16:28 33.668130 -118.061553 7 14033ft 224kts
08-Nov-19 16:29 33.733417 -118.057414 4 15533ft 222kts
08-Nov-19 16:30 33.790367 -118.059053 335 18010ft 200kts
08-Nov-19 16:31 33.839780 -118.087135 335 20074ft 204kts
08-Nov-19 16:32 33.902211 -118.123029 335 20057ft 281kts
08-Nov-19 16:33 33.975020 -118.164978 335 20084ft 296kts
08-Nov-19 16:34 34.050050 -118.208277 335 20078ft 300kts
08-Nov-19 16:35 34.125930 -118.252157 336 20083ft 302kts
08-Nov-19 16:36 34.201643 -118.296005 336 20083ft 302kts
08-Nov-19 16:37 34.277505 -118.340049 336 20088ft 303kts
08-Nov-19 16:38 34.353014 -118.383982 336 20122ft 302kts
08-Nov-19 16:39 34.428853 -118.428173 336 20140ft 302kts
08-Nov-19 16:40 34.504710 -118.472477 336 20172ft 302kts
08-Nov-19 16:41 34.583052 -118.518336 336 19072ft 326kts
08-Nov-19 16:42 34.665896 -118.566921 336 17595ft 331kts
08-Nov-19 16:43 34.738945 -118.633839 322 16099ft 328kts
08-Nov-19 16:44 34.808308 -118.704573 321 14514ft 326kts
08-Nov-19 16:45 34.876986 -118.774719 321 12902ft 319kts
08-Nov-19 16:46 34.942892 -118.842193 321 12055ft 292kts
08-Nov-19 16:47 35.015435 -118.861365 1 12046ft 269kts
08-Nov-19 16:49 35.087297 -118.845539 32 11505ft 278kts
08-Nov-19 16:50 35.154635 -118.794779 31 9888ft 270kts
08-Nov-19 16:51 35.200569 -118.834320 282 7376ft 245kts
08-Nov-19 16:52 35.218738 -118.912140 319 4367ft 239kts
08-Nov-19 16:53 35.278895 -118.907798 12 2477ft 202kts
08-Nov-19 16:54 35.328612 -118.928410 312 2472ft 196kts
08-Nov-19 16:55 35.367058 -118.975419 315 2289ft 184kts
08-Nov-19 16:56 35.396923 -119.011250 315 1397ft 117kts
08-Nov-19 16:57 35.416218 -119.034626 313 932ft 94kts
08-Nov-19 16:58 35.433940 -119.056270 311 488ft 72kts
08-Nov-19 16:59 35.440435 -119.061934 132 499ft 12kts
08-Nov-19 17:00 35.436342 -119.057000 134 493ft 24kts
08-Nov-19 17:01 35.431993 -119.051751 135 493ft 19kts
08-Nov-19 17:02 35.429919 -119.047023 107 494ft 14kts
08-Nov-19 17:03 35.429465 -119.046525 131 493ft 0kts
08-Nov-19 17:04 35.429465 -119.046525 131 493ft 0kts

Navigation Log

Ident Type
Flight plan parsing failed, navigation log unavailable